createdAt,value
2018-05-04T00:01:42.541Z,98250.60
2018-05-04T00:04:10.182Z,98250.60
2018-05-04T00:06:37.784Z,98249.91
2018-05-04T00:09:05.456Z,98259.14
2018-05-04T00:11:33.245Z,98266.11
2018-05-04T00:14:00.888Z,98273.05
2018-05-04T00:16:28.474Z,98270.61
2018-05-04T00:18:56.256Z,98272.19
2018-05-04T00:21:23.856Z,98266.70
2018-05-04T00:23:51.443Z,98270.37
2018-05-04T00:26:19.127Z,98269.54
2018-05-04T00:28:46.779Z,98265.86
2018-05-04T00:31:14.361Z,98271.95
2018-05-04T00:33:41.990Z,98260.95
2018-05-04T00:36:09.607Z,98253.84
2018-05-04T00:38:37.414Z,98259.05
2018-05-04T00:41:05.084Z,98260.52
2018-05-04T00:43:32.674Z,98259.86
2018-05-04T00:46:00.259Z,98262.52
2018-05-04T00:48:28.024Z,98259.73
2018-05-04T00:50:55.631Z,98268.64
2018-05-04T00:53:23.223Z,98267.50
2018-05-04T00:55:50.936Z,98265.45
2018-05-04T00:58:18.511Z,98268.48
2018-05-04T01:00:46.128Z,98263.47
2018-05-04T01:03:13.928Z,98264.75
2018-05-04T01:05:41.569Z,98266.53
2018-05-04T01:08:09.152Z,98269.97
2018-05-04T01:10:36.876Z,98269.35
2018-05-04T01:13:04.551Z,98271.98
2018-05-04T01:15:32.148Z,98281.67
2018-05-04T01:17:59.923Z,98282.10
2018-05-04T01:20:27.539Z,98283.16
2018-05-04T01:22:55.121Z,98291.22
2018-05-04T01:25:22.755Z,98293.92
2018-05-04T01:27:50.340Z,98293.51
2018-05-04T01:30:17.937Z,98292.68
2018-05-04T01:32:45.579Z,98292.78
2018-05-04T01:35:13.167Z,98288.30
2018-05-04T01:37:40.804Z,98279.84
2018-05-04T01:40:08.725Z,98278.16
2018-05-04T01:42:36.295Z,98269.49
2018-05-04T01:45:03.891Z,98269.20
2018-05-04T01:47:31.605Z,98260.83
2018-05-04T01:49:59.808Z,98252.16
2018-05-04T01:52:27.392Z,98252.91
2018-05-04T01:54:55.095Z,98266.27
2018-05-04T01:57:22.746Z,98266.78
2018-05-04T01:59:50.398Z,98265.72
2018-05-04T02:02:18.138Z,98274.16
2018-05-04T02:04:45.795Z,98277.96
2018-05-04T02:07:13.383Z,98274.59
2018-05-04T02:09:41.139Z,98283.15
2018-05-04T02:12:08.721Z,98284.70
2018-05-04T02:14:36.376Z,98284.37
2018-05-04T02:17:04.065Z,98283.66
2018-05-04T02:19:31.652Z,98283.53
2018-05-04T02:21:59.227Z,98284.36
2018-05-04T02:24:26.996Z,98281.04
2018-05-04T02:26:54.580Z,98284.36
2018-05-04T02:29:22.807Z,98285.20
2018-05-04T02:31:50.453Z,98293.01
2018-05-04T02:34:18.030Z,98295.70
2018-05-04T02:36:46.322Z,98295.55
2018-05-04T02:39:14.048Z,98298.76
2018-05-04T02:41:41.776Z,98297.27
2018-05-04T02:44:09.425Z,98305.20
2018-05-04T02:46:37.148Z,98292.27
2018-05-04T02:49:04.735Z,98289.56
2018-05-04T02:51:32.355Z,98292.83
2018-05-04T02:54:00.032Z,98291.38
2018-05-04T02:56:27.603Z,98287.10
2018-05-04T02:58:55.240Z,98281.17
2018-05-04T03:01:23.684Z,98285.89
2018-05-04T03:03:51.328Z,98275.56
2018-05-04T03:06:18.926Z,98285.80
2018-05-04T03:08:46.561Z,98286.31
2018-05-04T03:11:14.150Z,98284.97
2018-05-04T03:13:41.733Z,98285.80
2018-05-04T03:16:09.469Z,98275.70
2018-05-04T03:18:37.081Z,98279.77
2018-05-04T03:21:04.652Z,98282.06
2018-05-04T03:23:32.428Z,98281.74
2018-05-04T03:26:00.019Z,98276.75
2018-05-04T03:28:27.595Z,98273.01
2018-05-04T03:30:55.314Z,98273.05
2018-05-04T03:33:22.970Z,98275.02
2018-05-04T03:35:50.641Z,98273.38
2018-05-04T03:38:18.327Z,98272.63
2018-05-04T03:40:45.961Z,98274.31
2018-05-04T03:43:14.843Z,98281.51
2018-05-04T03:45:42.491Z,98301.63
2018-05-04T03:48:10.977Z,98306.95
2018-05-04T03:50:38.581Z,98316.70
2018-05-04T03:53:07.053Z,98318.31
2018-05-04T03:55:35.029Z,98320.47
2018-05-04T03:58:14.352Z,98314.44
2018-05-04T04:00:53.753Z,98316.32
2018-05-04T04:03:33.145Z,98313.84
2018-05-04T04:06:00.805Z,98316.47
2018-05-04T04:08:28.420Z,98320.55
2018-05-04T04:10:56.209Z,98315.68
2018-05-04T04:13:23.869Z,98314.66
2018-05-04T04:15:51.457Z,98312.56
2018-05-04T04:18:19.185Z,98312.56
2018-05-04T04:20:47.604Z,98320.09
2018-05-04T04:23:15.200Z,98320.42
2018-05-04T04:25:42.913Z,98318.67
2018-05-04T04:28:10.507Z,98315.39
2018-05-04T04:30:38.233Z,98309.97
2018-05-04T04:33:05.855Z,98323.34
2018-05-04T04:35:33.459Z,98329.70
2018-05-04T04:38:01.109Z,98333.06
2018-05-04T04:40:28.899Z,98329.80
2018-05-04T04:42:56.564Z,98331.99
2018-05-04T04:45:24.281Z,98341.52
2018-05-04T04:47:51.953Z,98347.59
2018-05-04T04:50:19.535Z,98341.00
2018-05-04T04:52:47.181Z,98339.33
2018-05-04T04:55:14.868Z,98342.16
2018-05-04T04:57:42.524Z,98340.30
2018-05-04T05:00:10.119Z,98339.64
2018-05-04T05:02:37.851Z,98343.97
2018-05-04T05:05:05.463Z,98343.30
2018-05-04T05:07:33.055Z,98340.47
2018-05-04T05:10:00.889Z,98350.47
2018-05-04T05:12:28.477Z,98348.55
2018-05-04T05:14:56.063Z,98363.08
2018-05-04T05:17:23.768Z,98370.61
2018-05-04T05:19:51.435Z,98378.84
2018-05-04T05:22:19.016Z,98388.12
2018-05-04T05:24:46.728Z,98384.61
2018-05-04T05:27:14.384Z,98392.95
2018-05-04T05:29:41.971Z,98392.33
2018-05-04T05:32:09.662Z,98399.61
2018-05-04T05:34:37.308Z,98396.91
2018-05-04T05:37:04.939Z,98399.02
2018-05-04T05:39:32.703Z,98385.30
2018-05-04T05:42:00.357Z,98386.88
2018-05-04T05:44:28.013Z,98387.34
2018-05-04T05:46:55.782Z,98383.17
2018-05-04T05:49:23.425Z,98376.50
2018-05-04T05:51:51.129Z,98383.11
2018-05-04T05:54:18.756Z,98375.52
2018-05-04T05:56:46.337Z,98376.63
2018-05-04T05:59:13.997Z,98374.12
2018-05-04T06:01:41.832Z,98380.28
2018-05-04T06:04:09.637Z,98378.23
2018-05-04T06:06:37.171Z,98376.56
2018-05-04T06:09:05.636Z,98381.84
2018-05-04T06:11:33.249Z,98378.69
2018-05-04T06:14:00.892Z,98380.73
2018-05-04T06:16:28.621Z,98380.72
2018-05-04T06:18:56.217Z,98376.72
2018-05-04T06:21:23.878Z,98375.75
2018-05-04T06:23:51.514Z,98365.11
2018-05-04T06:26:19.132Z,98368.21
2018-05-04T06:28:46.733Z,98368.88
2018-05-04T06:31:14.375Z,98367.96
2018-05-04T06:33:41.980Z,98370.19
2018-05-04T06:36:09.592Z,98359.38
2018-05-04T06:38:37.270Z,98363.12
2018-05-04T06:41:25.128Z,98360.92
2018-05-04T06:43:53.077Z,98358.24
2018-05-04T06:46:20.664Z,98360.13
2018-05-04T06:48:48.335Z,98363.55
2018-05-04T06:51:15.996Z,98370.59
2018-05-04T06:53:43.562Z,98380.73
2018-05-04T06:56:11.149Z,98371.33
2018-05-04T06:58:38.788Z,98374.41
2018-05-04T07:01:06.460Z,98368.13
2018-05-04T07:03:34.055Z,98369.27
2018-05-04T07:06:01.789Z,98372.10
2018-05-04T07:08:29.375Z,98368.09
2018-05-04T07:10:56.986Z,98368.33
2018-05-04T07:13:24.669Z,98370.55
2018-05-04T07:15:52.239Z,98358.97
2018-05-04T07:18:19.831Z,98363.44
2018-05-04T07:20:47.555Z,98365.23
2018-05-04T07:23:15.191Z,98368.38
2018-05-04T07:25:42.752Z,98359.74
2018-05-04T07:28:10.391Z,98367.80
2018-05-04T07:30:37.973Z,98368.28
2018-05-04T07:33:05.571Z,98368.38
2018-05-04T07:35:33.314Z,98366.43
2018-05-04T07:38:01.652Z,98366.36
2018-05-04T07:40:29.347Z,98366.00
2018-05-04T07:42:57.080Z,98367.25
2018-05-04T07:45:24.668Z,98367.03
2018-05-04T07:47:52.248Z,98360.23
2018-05-04T07:50:20.076Z,98364.66
2018-05-04T07:52:47.748Z,98358.38
2018-05-04T07:55:16.145Z,98363.58
2018-05-04T07:57:43.764Z,98368.73
2018-05-04T08:00:11.393Z,98361.34
2018-05-04T08:02:39.836Z,98371.62
2018-05-04T08:05:07.552Z,98369.33
2018-05-04T08:07:35.130Z,98362.68
2018-05-04T08:10:03.281Z,98365.73
2018-05-04T08:12:31.060Z,98370.44
2018-05-04T08:14:58.701Z,98369.47
2018-05-04T08:17:26.302Z,98368.25
2018-05-04T08:19:54.024Z,98368.48
2018-05-04T08:22:21.952Z,98367.65
2018-05-04T08:24:49.557Z,98364.36
2018-05-04T08:27:17.273Z,98362.69
2018-05-04T08:29:44.864Z,98358.33
2018-05-04T08:32:12.456Z,98363.18
2018-05-04T08:34:40.192Z,98362.18
2018-05-04T08:37:07.852Z,98365.77
2018-05-04T08:39:35.444Z,98366.48
2018-05-04T08:42:03.141Z,98361.80
2018-05-04T08:44:30.752Z,98350.55
2018-05-04T08:46:58.336Z,98349.20
2018-05-04T08:49:26.024Z,98348.95
2018-05-04T08:51:53.760Z,98354.66
2018-05-04T08:54:21.407Z,98347.87
2018-05-04T08:56:49.059Z,98354.98
2018-05-04T08:59:16.707Z,98351.86
2018-05-04T09:01:44.299Z,98348.17
2018-05-04T09:04:11.946Z,98348.59
2018-05-04T09:06:39.531Z,98347.37
2018-05-04T09:09:07.673Z,98346.59
2018-05-04T09:11:35.323Z,98346.48
2018-05-04T09:14:03.713Z,98339.67
2018-05-04T09:16:31.308Z,98339.81
2018-05-04T09:18:59.045Z,98338.32
2018-05-04T09:21:26.629Z,98338.06
2018-05-04T09:23:54.276Z,98337.41
2018-05-04T09:26:21.921Z,98344.27
2018-05-04T09:28:49.586Z,98339.02
2018-05-04T09:31:17.166Z,98343.56
2018-05-04T09:33:44.803Z,98343.86
2018-05-04T09:36:12.433Z,98347.94
2018-05-04T09:38:40.106Z,98343.81
2018-05-04T09:41:07.810Z,98347.81
2018-05-04T09:43:35.584Z,98345.62
2018-05-04T09:46:03.026Z,98350.17
2018-05-04T09:48:30.680Z,98343.65
2018-05-04T09:50:58.275Z,98343.28
2018-05-04T09:53:26.065Z,98349.86
2018-05-04T09:55:53.746Z,98350.16
2018-05-04T09:58:21.314Z,98346.48
2018-05-04T10:00:48.899Z,98344.91
2018-05-04T10:03:16.592Z,98342.83
2018-05-04T10:05:44.257Z,98339.30
2018-05-04T10:08:11.864Z,98338.31
2018-05-04T10:10:39.587Z,98340.66
2018-05-04T10:13:07.171Z,98337.73
2018-05-04T10:15:34.826Z,98328.39
2018-05-04T10:18:02.626Z,98328.96
2018-05-04T10:20:30.220Z,98327.28
2018-05-04T10:22:57.808Z,98337.27
2018-05-04T10:28:17.587Z,98339.77
2018-05-04T10:30:45.216Z,98339.34
2018-05-04T10:33:12.839Z,98332.87
2018-05-04T10:35:40.421Z,98331.38
2018-05-04T10:38:08.165Z,98326.77
2018-05-04T10:40:35.812Z,98326.56
2018-05-04T10:43:03.413Z,98334.88
2018-05-04T10:45:31.041Z,98327.42
2018-05-04T10:47:58.689Z,98321.48
2018-05-04T10:50:26.332Z,98325.52
2018-05-04T10:52:53.957Z,98331.74
2018-05-04T10:55:22.072Z,98327.88
2018-05-04T10:57:50.368Z,98328.75
2018-05-04T11:00:17.988Z,98326.28
2018-05-04T11:02:45.564Z,98325.09
2018-05-04T11:05:13.132Z,98325.73
2018-05-04T11:07:40.843Z,98321.00
2018-05-04T11:10:08.493Z,98325.61
2018-05-04T11:12:36.085Z,98322.17
2018-05-04T11:15:03.805Z,98322.83
2018-05-04T11:17:31.433Z,98330.10
2018-05-04T11:19:59.009Z,98324.19
2018-05-04T11:22:26.647Z,98323.23
2018-05-04T11:24:54.860Z,98327.77
2018-05-04T11:27:22.436Z,98332.31
2018-05-04T11:29:50.221Z,98326.58
2018-05-04T11:32:17.808Z,98327.56
2018-05-04T11:34:45.388Z,98325.91
2018-05-04T11:37:13.071Z,98323.11
2018-05-04T11:39:40.655Z,98317.91
2018-05-04T11:42:08.304Z,98313.95
2018-05-04T11:44:35.927Z,98315.19
2018-05-04T11:47:03.613Z,98311.72
2018-05-04T11:49:31.242Z,98308.23
2018-05-04T11:51:58.852Z,98310.08
2018-05-04T11:54:26.432Z,98312.34
2018-05-04T11:56:54.236Z,98304.70
2018-05-04T11:59:21.939Z,98309.63
2018-05-04T12:01:49.550Z,98302.47
2018-05-04T12:04:17.213Z,98298.14
2018-05-04T12:06:44.935Z,98294.08
2018-05-04T12:09:12.528Z,98291.92
2018-05-04T12:11:40.120Z,98294.72
2018-05-04T12:14:08.703Z,98295.89
2018-05-04T12:16:36.412Z,98291.38
2018-05-04T12:19:04.044Z,98294.95
2018-05-04T12:21:31.733Z,98292.47
2018-05-04T12:23:59.380Z,98284.03
2018-05-04T12:26:26.944Z,98276.80
2018-05-04T12:28:54.584Z,98274.12
2018-05-04T12:31:22.176Z,98270.06
2018-05-04T12:33:49.775Z,98264.62
2018-05-04T12:36:17.396Z,98270.78
2018-05-04T12:38:45.878Z,98268.89
2018-05-04T12:41:13.452Z,98264.36
2018-05-04T12:43:41.152Z,98251.31
2018-05-04T12:46:08.729Z,98257.41
2018-05-04T12:48:36.311Z,98253.59
2018-05-04T12:51:03.939Z,98254.92
2018-05-04T12:53:31.562Z,98254.42
2018-05-04T12:55:59.115Z,98255.84
2018-05-04T12:58:27.769Z,98246.33
2018-05-04T13:00:55.395Z,98250.99
2018-05-04T13:03:22.976Z,98250.92
2018-05-04T13:05:50.724Z,98243.23
2018-05-04T13:08:18.373Z,98239.52
2018-05-04T13:10:46.021Z,98244.22
2018-05-04T13:13:13.899Z,98251.80
2018-05-04T13:15:41.496Z,98239.52
2018-05-04T13:18:09.068Z,98241.00
2018-05-04T13:20:36.941Z,98242.41
2018-05-04T13:23:04.516Z,98235.00
2018-05-04T13:25:32.171Z,98238.88
2018-05-04T13:27:59.893Z,98241.90
2018-05-04T13:30:27.553Z,98237.10
2018-05-04T13:32:55.276Z,98243.50
2018-05-04T13:35:22.903Z,98240.81
2018-05-04T13:37:50.558Z,98239.38
2018-05-04T13:40:18.297Z,98242.36
2018-05-04T13:42:45.968Z,98237.07
2018-05-04T13:45:13.604Z,98231.11
2018-05-04T13:47:41.248Z,98230.33
2018-05-04T13:50:08.888Z,98227.09
2018-05-04T13:52:36.469Z,98226.70
2018-05-04T13:55:04.110Z,98225.00
2018-05-04T13:57:31.791Z,98224.16
2018-05-04T14:00:00.583Z,98218.37
2018-05-04T14:02:28.256Z,98219.29
2018-05-04T14:04:56.064Z,98216.50
2018-05-04T14:07:23.705Z,98220.47
2018-05-04T14:09:51.283Z,98217.35
2018-05-04T14:12:19.069Z,98217.37
2018-05-04T14:14:46.631Z,98214.64
2018-05-04T14:17:14.204Z,98208.34
2018-05-04T14:19:41.828Z,98210.84
2018-05-04T14:22:09.403Z,98219.47
2018-05-04T14:24:37.056Z,98214.26
2018-05-04T14:27:04.705Z,98218.34
2018-05-04T14:29:32.360Z,98210.72
2018-05-04T14:31:59.944Z,98208.13
2018-05-04T14:34:27.660Z,98214.78
2018-05-04T14:36:55.313Z,98208.59
2018-05-04T14:39:23.845Z,98208.76
2018-05-04T14:41:52.346Z,98212.14
2018-05-04T14:44:19.932Z,98205.43
2018-05-04T14:46:47.588Z,98199.45
2018-05-04T14:49:15.233Z,98200.56
2018-05-04T14:51:42.889Z,98198.33
2018-05-04T14:54:10.508Z,98200.69
2018-05-04T14:56:38.168Z,98193.96
2018-05-04T14:59:05.749Z,98195.36
2018-05-04T15:01:34.033Z,98196.18
2018-05-04T15:04:01.869Z,98197.75
2018-05-04T15:06:29.452Z,98196.97
2018-05-04T15:08:57.064Z,98199.01
2018-05-04T15:11:25.339Z,98197.98
2018-05-04T15:13:52.992Z,98191.18
2018-05-04T15:16:20.560Z,98192.16
2018-05-04T15:18:48.261Z,98188.42
2018-05-04T15:21:15.913Z,98198.35
2018-05-04T15:23:43.542Z,98196.79
2018-05-04T15:26:11.201Z,98190.93
2018-05-04T15:28:38.815Z,98203.21
2018-05-04T15:31:06.411Z,98206.48
2018-05-04T15:33:34.063Z,98201.13
2018-05-04T15:36:02.425Z,98200.20
2018-05-04T15:38:30.064Z,98202.19
2018-05-04T15:40:57.766Z,98200.38
2018-05-04T15:43:25.421Z,98202.66
2018-05-04T15:45:53.066Z,98193.70
2018-05-04T15:48:26.155Z,98199.45
2018-05-04T15:50:59.382Z,98198.23
2018-05-04T15:53:27.012Z,98193.70
2018-05-04T15:55:54.596Z,98194.15
2018-05-04T15:58:22.192Z,98198.36
2018-05-04T16:00:49.821Z,98191.91
2018-05-04T16:03:18.296Z,98197.37
2018-05-04T16:05:45.867Z,98199.33
2018-05-04T16:08:13.564Z,98199.88
2018-05-04T16:10:41.929Z,98196.81
2018-05-04T16:13:09.583Z,98198.22
2018-05-04T16:15:37.589Z,98198.22
2018-05-04T16:18:05.197Z,98201.16
2018-05-04T16:20:32.782Z,98198.86
2018-05-04T16:23:00.484Z,98200.14
2018-05-04T16:25:28.071Z,98195.91
2018-05-04T16:27:55.644Z,98201.42
2018-05-04T16:30:23.394Z,98196.73
2018-05-04T16:32:51.072Z,98201.03
2018-05-04T16:35:18.723Z,98196.38
2018-05-04T16:37:46.357Z,98207.86
2018-05-04T16:40:14.308Z,98205.70
2018-05-04T16:42:41.898Z,98211.23
2018-05-04T16:45:09.631Z,98215.69
2018-05-04T16:47:42.857Z,98218.06
2018-05-04T16:50:10.573Z,98215.02
2018-05-04T16:52:38.220Z,98216.70
2018-05-04T16:55:05.808Z,98222.23
2018-05-04T16:57:33.486Z,98222.66
2018-05-04T17:00:01.091Z,98218.52
2018-05-04T17:02:28.734Z,98223.08
2018-05-04T17:04:56.500Z,98219.64
2018-05-04T17:07:24.067Z,98218.13
2018-05-04T17:09:51.732Z,98221.30
2018-05-04T17:12:19.393Z,98221.55
2018-05-04T17:14:47.004Z,98224.44
2018-05-04T17:17:15.184Z,98220.01
2018-05-04T17:19:42.827Z,98227.31
2018-05-04T17:22:10.433Z,98227.31
2018-05-04T17:24:38.032Z,98229.09
2018-05-04T17:27:05.651Z,98230.05
2018-05-04T17:29:33.257Z,98227.23
2018-05-04T17:32:00.916Z,98231.10
2018-05-04T17:34:28.536Z,98230.09
2018-05-04T17:36:56.132Z,98238.14
2018-05-04T17:39:23.708Z,98238.12
2018-05-04T17:41:51.326Z,98239.72
2018-05-04T17:44:18.967Z,98243.28
2018-05-04T17:46:46.632Z,98242.98
2018-05-04T17:49:14.420Z,98250.41
2018-05-04T17:51:41.995Z,98248.45
2018-05-04T17:54:10.376Z,98252.30
2018-05-04T17:56:38.064Z,98251.55
2018-05-04T17:59:05.696Z,98249.17
2018-05-04T18:01:33.387Z,98253.42
2018-05-04T18:04:01.161Z,98259.97
2018-05-04T18:06:28.835Z,98256.63
2018-05-04T18:08:56.416Z,98260.60
2018-05-04T18:11:24.130Z,98257.84
2018-05-04T18:13:51.701Z,98259.06
2018-05-04T18:16:19.535Z,98256.71
2018-05-04T18:18:47.207Z,98261.63
2018-05-04T18:21:14.860Z,98265.75
2018-05-04T18:23:42.463Z,98258.84
2018-05-04T18:26:10.200Z,98267.34
2018-05-04T18:28:37.801Z,98262.66
2018-05-04T18:31:05.409Z,98262.32
2018-05-04T18:33:33.110Z,98263.26
2018-05-04T18:36:00.701Z,98269.67
2018-05-04T18:38:28.363Z,98276.49
2018-05-04T18:40:56.088Z,98276.54
2018-05-04T18:43:23.729Z,98276.06
2018-05-04T18:45:51.352Z,98273.23
2018-05-04T18:48:19.033Z,98269.68
2018-05-04T18:50:46.620Z,98272.41
2018-05-04T18:53:14.214Z,98266.30
2018-05-04T18:55:41.941Z,98268.87
2018-05-04T18:58:09.506Z,98275.15
2018-05-04T19:00:37.189Z,98281.88
2018-05-04T19:03:10.440Z,98287.91
2018-05-04T19:05:38.024Z,98280.45
2018-05-04T19:08:05.784Z,98279.36
2018-05-04T19:10:33.431Z,98286.65
2018-05-04T19:13:01.076Z,98290.77
2018-05-04T19:15:28.670Z,98284.98
2018-05-04T19:17:57.280Z,98282.36
2018-05-04T19:20:24.896Z,98294.01
2018-05-04T19:22:52.556Z,98282.22
2018-05-04T19:25:20.339Z,98288.81
2018-05-04T19:27:47.930Z,98289.89
2018-05-04T19:30:15.621Z,98290.72
2018-05-04T19:32:43.388Z,98292.92
2018-05-04T19:35:11.065Z,98298.52
2018-05-04T19:37:38.649Z,98298.73
2018-05-04T19:40:07.088Z,98305.23
2018-05-04T19:42:34.675Z,98309.98
2018-05-04T19:45:02.345Z,98310.97
2018-05-04T19:47:29.977Z,98312.47
2018-05-04T19:49:57.629Z,98313.01
2018-05-04T19:52:25.270Z,98316.42
2018-05-04T19:54:52.955Z,98308.18
2018-05-04T19:57:20.600Z,98316.27
2018-05-04T19:59:48.179Z,98315.20
2018-05-04T20:02:16.941Z,98314.67
2018-05-04T20:04:44.529Z,98320.69
2018-05-04T20:07:12.198Z,98318.80
2018-05-04T20:09:39.937Z,98320.02
2018-05-04T20:12:07.567Z,98317.23
2018-05-04T20:14:35.148Z,98318.41
2018-05-04T20:17:02.928Z,98314.76
2018-05-04T20:19:30.497Z,98321.05
2018-05-04T20:21:58.153Z,98318.98
2018-05-04T20:24:25.795Z,98324.66
2018-05-04T20:26:53.428Z,98328.80
2018-05-04T20:29:21.100Z,98327.21
2018-05-04T20:31:48.731Z,98329.95
2018-05-04T20:34:16.387Z,98325.55
2018-05-04T20:36:43.958Z,98323.22
2018-05-04T20:39:11.778Z,98316.07
2018-05-04T20:41:39.436Z,98323.03
2018-05-04T20:44:07.155Z,98321.81
2018-05-04T20:46:34.744Z,98326.88
2018-05-04T20:49:02.389Z,98323.83
2018-05-04T20:51:30.061Z,98326.80
2018-05-04T20:53:57.687Z,98322.01
2018-05-04T20:56:25.332Z,98317.55
2018-05-04T20:58:52.994Z,98321.90
2018-05-04T21:01:20.692Z,98323.84
2018-05-04T21:03:48.361Z,98321.78
2018-05-04T21:06:15.962Z,98327.64
2018-05-04T21:08:43.657Z,98329.47
2018-05-04T21:11:11.364Z,98331.06
2018-05-04T21:13:39.005Z,98324.95
2018-05-04T21:16:06.749Z,98331.70
2018-05-04T21:18:34.356Z,98338.08
2018-05-04T21:21:01.944Z,98337.83
2018-05-04T21:23:29.594Z,98335.55
2018-05-04T21:25:57.199Z,98335.82
2018-05-04T21:28:24.776Z,98340.91
2018-05-04T21:30:52.461Z,98339.35
2018-05-04T21:33:20.052Z,98344.56
2018-05-04T21:35:47.664Z,98339.97
2018-05-04T21:38:15.300Z,98334.98
2018-05-04T21:40:42.884Z,98337.80
2018-05-04T21:43:10.520Z,98336.84
2018-05-04T21:45:38.325Z,98336.23
2018-05-04T21:48:05.968Z,98332.25
2018-05-04T21:50:33.654Z,98333.97
2018-05-04T21:53:01.302Z,98338.80
2018-05-04T21:55:28.973Z,98336.29
2018-05-04T21:57:56.567Z,98342.28
2018-05-04T22:00:24.272Z,98343.75
2018-05-04T22:02:51.915Z,98336.25
2018-05-04T22:05:19.492Z,98336.20
2018-05-04T22:07:47.272Z,98342.38
2018-05-04T22:10:14.878Z,98333.23
2018-05-04T22:12:42.703Z,98326.78
2018-05-04T22:15:10.335Z,98326.94
2018-05-04T22:17:38.056Z,98321.72
2018-05-04T22:20:05.645Z,98327.59
2018-05-04T22:22:33.382Z,98321.17
2018-05-04T22:25:01.029Z,98325.33
2018-05-04T22:27:28.626Z,98327.28
2018-05-04T22:29:57.163Z,98322.91
2018-05-04T22:32:24.768Z,98316.98
2018-05-04T22:34:52.346Z,98316.44
2018-05-04T22:37:20.769Z,98318.08
2018-05-04T22:39:48.402Z,98328.19
2018-05-04T22:42:16.041Z,98326.04
2018-05-04T22:44:43.819Z,98328.25
2018-05-04T22:47:11.955Z,98332.22
2018-05-04T22:49:39.611Z,98326.14
2018-05-04T22:52:07.228Z,98325.45
2018-05-04T22:54:34.888Z,98333.20
2018-05-04T22:57:02.533Z,98330.47
2018-05-04T22:59:30.307Z,98333.43
2018-05-04T23:01:58.644Z,98333.63
2018-05-04T23:04:26.228Z,98324.05
2018-05-04T23:06:53.898Z,98331.72
2018-05-04T23:09:21.534Z,98320.92
2018-05-04T23:11:49.118Z,98321.11
2018-05-04T23:14:17.352Z,98314.53
2018-05-04T23:16:44.980Z,98313.62
2018-05-04T23:19:12.628Z,98311.59
2018-05-04T23:21:40.355Z,98315.58
2018-05-04T23:24:07.930Z,98305.14
2018-05-04T23:26:35.579Z,98309.05
2018-05-04T23:29:03.391Z,98304.22
2018-05-04T23:31:30.983Z,98300.72
2018-05-04T23:33:58.564Z,98296.63
2018-05-04T23:36:26.199Z,98297.66
2018-05-04T23:38:53.783Z,98295.47
2018-05-04T23:41:21.425Z,98296.77
2018-05-04T23:43:49.201Z,98298.28
2018-05-04T23:46:16.782Z,98288.47
2018-05-04T23:48:44.365Z,98282.12
2018-05-04T23:51:11.991Z,98278.97
2018-05-04T23:53:39.552Z,98273.59
2018-05-04T23:56:07.179Z,98272.27
2018-05-04T23:58:34.987Z,98268.05
